sensor_id;sensor_type;location;lat;lon;timestamp;pressure;altitude;pressure_sealevel;temperature;humidity
21826;BME280;11075;47.944;11.776;2022-10-30T00:01:03;95255.22;;;14.79;27.58
21826;BME280;11075;47.944;11.776;2022-10-30T00:03:30;95243.69;;;14.35;28.08
21826;BME280;11075;47.944;11.776;2022-10-30T00:05:57;95210.75;;;13.09;30.02
21826;BME280;11075;47.944;11.776;2022-10-30T00:08:24;95271.56;;;15.65;25.99
21826;BME280;11075;47.944;11.776;2022-10-30T00:10:52;95275.03;;;15.30;26.60
21826;BME280;11075;47.944;11.776;2022-10-30T00:13:19;95279.94;;;16.14;25.73
21826;BME280;11075;47.944;11.776;2022-10-30T00:15:48;95263.41;;;15.65;26.05
21826;BME280;11075;47.944;11.776;2022-10-30T00:18:15;95214.91;;;13.58;29.02
21826;BME280;11075;47.944;11.776;2022-10-30T00:20:42;95239.06;;;14.67;27.56
21826;BME280;11075;47.944;11.776;2022-10-30T00:23:09;95226.31;;;14.08;28.35
21826;BME280;11075;47.944;11.776;2022-10-30T00:25:36;95220.53;;;14.09;28.40
21826;BME280;11075;47.944;11.776;2022-10-30T00:28:04;95244.19;;;15.38;26.87
21826;BME280;11075;47.944;11.776;2022-10-30T00:30:32;95241.28;;;15.12;26.71
21826;BME280;11075;47.944;11.776;2022-10-30T00:32:58;95246.97;;;15.22;26.53
21826;BME280;11075;47.944;11.776;2022-10-30T00:35:26;95228.47;;;14.77;27.34
21826;BME280;11075;47.944;11.776;2022-10-30T00:37:53;95231.78;;;14.23;27.63
21826;BME280;11075;47.944;11.776;2022-10-30T00:40:21;95238.41;;;15.40;26.37
21826;BME280;11075;47.944;11.776;2022-10-30T00:42:48;95256.09;;;16.27;25.47
21826;BME280;11075;47.944;11.776;2022-10-30T00:45:16;95214.38;;;13.81;28.21
21826;BME280;11075;47.944;11.776;2022-10-30T00:47:51;95254.25;;;15.73;25.61
21826;BME280;11075;47.944;11.776;2022-10-30T00:50:23;95247.03;;;15.26;26.16
21826;BME280;11075;47.944;11.776;2022-10-30T00:53:06;95247.34;;;15.40;26.19
21826;BME280;11075;47.944;11.776;2022-10-30T00:55:37;95231.78;;;15.02;26.03
21826;BME280;11075;47.944;11.776;2022-10-30T00:58:09;95188.81;;;11.92;29.51
21826;BME280;11075;47.944;11.776;2022-10-30T01:00:37;95209.00;;;13.28;28.18
21826;BME280;11075;47.944;11.776;2022-10-30T01:03:06;95253.53;;;15.56;25.53
21826;BME280;11075;47.944;11.776;2022-10-30T01:05:34;95196.91;;;12.98;29.11
21826;BME280;11075;47.944;11.776;2022-10-30T01:08:02;95226.78;;;15.04;26.48
21826;BME280;11075;47.944;11.776;2022-10-30T01:10:29;95206.66;;;13.55;28.01
21826;BME280;11075;47.944;11.776;2022-10-30T01:12:58;95182.44;;;12.21;29.60
21826;BME280;11075;47.944;11.776;2022-10-30T01:15:30;95164.78;;;12.11;30.22
21826;BME280;11075;47.944;11.776;2022-10-30T01:18:45;95183.38;;;12.98;29.12
21826;BME280;11075;47.944;11.776;2022-10-30T01:32:34;95182.50;;;12.57;29.11
21826;BME280;11075;47.944;11.776;2022-10-30T01:37:05;95271.47;;;16.00;24.16
21826;BME280;11075;47.944;11.776;2022-10-30T01:39:36;95195.00;;;12.37;28.74
21826;BME280;11075;47.944;11.776;2022-10-30T01:44:57;95192.81;;;12.92;28.41
21826;BME280;11075;47.944;11.776;2022-10-30T01:47:38;95187.75;;;12.90;28.67
21826;BME280;11075;47.944;11.776;2022-10-30T01:53:24;95206.31;;;13.56;27.48
21826;BME280;11075;47.944;11.776;2022-10-30T01:56:35;95169.88;;;11.26;30.61
21826;BME280;11075;47.944;11.776;2022-10-30T01:59:21;95205.31;;;13.61;27.80
21826;BME280;11075;47.944;11.776;2022-10-30T02:01:51;95193.31;;;12.33;28.49
21826;BME280;11075;47.944;11.776;2022-10-30T02:04:18;95186.44;;;12.35;28.72
21826;BME280;11075;47.944;11.776;2022-10-30T02:06:45;95227.06;;;14.36;26.29
21826;BME280;11075;47.944;11.776;2022-10-30T02:09:14;95208.31;;;13.72;27.25
21826;BME280;11075;47.944;11.776;2022-10-30T02:11:46;95233.97;;;15.32;25.32
21826;BME280;11075;47.944;11.776;2022-10-30T02:14:17;95223.31;;;14.72;26.04
21826;BME280;11075;47.944;11.776;2022-10-30T02:16:49;95193.19;;;13.43;27.72
21826;BME280;11075;47.944;11.776;2022-10-30T02:19:18;95210.09;;;14.55;25.91
21826;BME280;11075;47.944;11.776;2022-10-30T02:21:45;95236.22;;;15.84;24.77
21826;BME280;11075;47.944;11.776;2022-10-30T02:24:12;95233.09;;;15.63;24.78
21826;BME280;11075;47.944;11.776;2022-10-30T02:26:39;95211.84;;;14.63;25.75
21826;BME280;11075;47.944;11.776;2022-10-30T02:29:06;95217.69;;;15.32;25.09
21826;BME280;11075;47.944;11.776;2022-10-30T02:31:33;95192.47;;;14.02;26.43
21826;BME280;11075;47.944;11.776;2022-10-30T02:34:00;95168.06;;;12.29;28.59
21826;BME280;11075;47.944;11.776;2022-10-30T02:36:27;95154.22;;;12.67;28.61
21826;BME280;11075;47.944;11.776;2022-10-30T02:38:54;95153.41;;;12.91;28.61
21826;BME280;11075;47.944;11.776;2022-10-30T02:41:22;95175.97;;;13.91;27.08
21826;BME280;11075;47.944;11.776;2022-10-30T02:43:50;95163.44;;;12.78;28.25
21826;BME280;11075;47.944;11.776;2022-10-30T02:46:19;95178.81;;;13.82;27.08
21826;BME280;11075;47.944;11.776;2022-10-30T02:48:47;95147.94;;;12.38;29.45
21826;BME280;11075;47.944;11.776;2022-10-30T02:51:14;95174.41;;;14.06;26.99
21826;BME280;11075;47.944;11.776;2022-10-30T02:53:41;95171.31;;;12.83;27.80
21826;BME280;11075;47.944;11.776;2022-10-30T02:56:11;95235.88;;;15.47;24.19
21826;BME280;11075;47.944;11.776;2022-10-30T02:58:41;95252.81;;;15.79;24.24
21826;BME280;11075;47.944;11.776;2022-10-30T03:01:12;95237.66;;;14.88;25.40
21826;BME280;11075;47.944;11.776;2022-10-30T03:03:40;95223.38;;;13.85;26.27
21826;BME280;11075;47.944;11.776;2022-10-30T03:06:09;95247.19;;;15.68;24.24
21826;BME280;11075;47.944;11.776;2022-10-30T03:08:36;95261.84;;;16.02;23.84
21826;BME280;11075;47.944;11.776;2022-10-30T03:11:09;95272.00;;;16.47;23.37
21826;BME280;11075;47.944;11.776;2022-10-30T03:13:37;95263.41;;;16.03;23.82
21826;BME280;11075;47.944;11.776;2022-10-30T03:16:20;95266.03;;;16.00;23.41
21826;BME280;11075;47.944;11.776;2022-10-30T03:18:48;95264.34;;;16.11;23.35
21826;BME280;11075;47.944;11.776;2022-10-30T03:21:17;95226.38;;;14.71;25.45
21826;BME280;11075;47.944;11.776;2022-10-30T03:23:45;95224.34;;;14.68;25.73
21826;BME280;11075;47.944;11.776;2022-10-30T03:26:12;95211.13;;;13.35;26.85
21826;BME280;11075;47.944;11.776;2022-10-30T03:28:48;95195.44;;;13.00;27.66
21826;BME280;11075;47.944;11.776;2022-10-30T03:31:16;95211.41;;;13.58;26.78
21826;BME280;11075;47.944;11.776;2022-10-30T03:33:45;95235.97;;;15.00;25.14
21826;BME280;11075;47.944;11.776;2022-10-30T03:36:13;95249.91;;;14.98;25.05
21826;BME280;11075;47.944;11.776;2022-10-30T03:38:41;95258.84;;;14.83;24.54
21826;BME280;11075;47.944;11.776;2022-10-30T03:41:11;95279.88;;;16.10;23.56
21826;BME280;11075;47.944;11.776;2022-10-30T03:43:38;95270.69;;;15.80;24.07
21826;BME280;11075;47.944;11.776;2022-10-30T03:46:05;95277.06;;;15.87;23.54
21826;BME280;11075;47.944;11.776;2022-10-30T03:48:32;95286.09;;;16.11;23.34
21826;BME280;11075;47.944;11.776;2022-10-30T03:50:59;95273.81;;;15.43;23.98
21826;BME280;11075;47.944;11.776;2022-10-30T03:53:28;95241.16;;;13.98;26.36
21826;BME280;11075;47.944;11.776;2022-10-30T03:56:00;95264.53;;;15.44;24.53
21826;BME280;11075;47.944;11.776;2022-10-30T03:58:35;95267.66;;;14.80;24.76
21826;BME280;11075;47.944;11.776;2022-10-30T04:01:06;95261.78;;;14.78;24.86
21826;BME280;11075;47.944;11.776;2022-10-30T04:03:37;95248.47;;;14.25;25.83
21826;BME280;11075;47.944;11.776;2022-10-30T04:06:05;95223.16;;;13.10;26.92
21826;BME280;11075;47.944;11.776;2022-10-30T04:08:33;95223.56;;;13.92;25.79
21826;BME280;11075;47.944;11.776;2022-10-30T04:11:01;95234.84;;;14.53;25.25
21826;BME280;11075;47.944;11.776;2022-10-30T04:13:28;95254.81;;;14.92;24.55
21826;BME280;11075;47.944;11.776;2022-10-30T04:15:55;95218.94;;;13.92;25.99
21826;BME280;11075;47.944;11.776;2022-10-30T04:18:24;95211.31;;;12.78;27.08
21826;BME280;11075;47.944;11.776;2022-10-30T04:20:52;95195.22;;;12.57;27.34
21826;BME280;11075;47.944;11.776;2022-10-30T04:23:20;95190.94;;;12.80;26.83
21826;BME280;11075;47.944;11.776;2022-10-30T04:25:47;95194.78;;;11.97;28.17
21826;BME280;11075;47.944;11.776;2022-10-30T04:28:14;95190.16;;;12.55;27.79
21826;BME280;11075;47.944;11.776;2022-10-30T04:30:42;95232.59;;;14.55;24.74
21826;BME280;11075;47.944;11.776;2022-10-30T04:33:13;95244.19;;;15.38;23.61
21826;BME280;11075;47.944;11.776;2022-10-30T04:35:44;95213.94;;;13.79;25.71
21826;BME280;11075;47.944;11.776;2022-10-30T04:38:15;95178.38;;;11.36;28.70
21826;BME280;11075;47.944;11.776;2022-10-30T04:40:45;95169.88;;;11.47;28.37
21826;BME280;11075;47.944;11.776;2022-10-30T04:43:14;95226.81;;;14.25;24.99
21826;BME280;11075;47.944;11.776;2022-10-30T04:45:45;95209.31;;;13.39;26.20
21826;BME280;11075;47.944;11.776;2022-10-30T04:48:14;95216.06;;;14.01;25.34
21826;BME280;11075;47.944;11.776;2022-10-30T04:50:44;95246.31;;;14.94;24.31
21826;BME280;11075;47.944;11.776;2022-10-30T04:53:18;95229.44;;;13.66;25.24
21826;BME280;11075;47.944;11.776;2022-10-30T04:55:52;95244.34;;;14.16;24.74
21826;BME280;11075;47.944;11.776;2022-10-30T04:58:19;95254.53;;;14.82;24.08
21826;BME280;11075;47.944;11.776;2022-10-30T05:00:52;95233.50;;;12.95;26.37
21826;BME280;11075;47.944;11.776;2022-10-30T05:03:22;95266.31;;;15.56;23.12
21826;BME280;11075;47.944;11.776;2022-10-30T05:08:29;95235.72;;;14.42;24.64
21826;BME280;11075;47.944;11.776;2022-10-30T05:10:58;95231.78;;;14.23;24.85
21826;BME280;11075;47.944;11.776;2022-10-30T05:13:29;95233.38;;;14.40;24.32
21826;BME280;11075;47.944;11.776;2022-10-30T05:15:56;95225.66;;;14.42;24.63
21826;BME280;11075;47.944;11.776;2022-10-30T05:18:24;95197.69;;;12.98;26.90
21826;BME280;11075;47.944;11.776;2022-10-30T05:20:51;95168.06;;;11.71;29.20
21826;BME280;11075;47.944;11.776;2022-10-30T05:23:17;95166.97;;;11.85;28.71
21826;BME280;11075;47.944;11.776;2022-10-30T05:25:44;95185.50;;;13.05;26.52
21826;BME280;11075;47.944;11.776;2022-10-30T05:28:14;95185.19;;;12.45;27.14
21826;BME280;11075;47.944;11.776;2022-10-30T05:30:47;95205.00;;;13.50;25.83
21826;BME280;11075;47.944;11.776;2022-10-30T05:33:34;95182.81;;;11.74;27.63
21826;BME280;11075;47.944;11.776;2022-10-30T05:36:00;95194.16;;;13.50;25.51
21826;BME280;11075;47.944;11.776;2022-10-30T05:38:27;95156.50;;;10.88;29.18
21826;BME280;11075;47.944;11.776;2022-10-30T05:40:55;95191.50;;;13.94;25.84
21826;BME280;11075;47.944;11.776;2022-10-30T05:43:23;95235.25;;;15.18;23.50
21826;BME280;11075;47.944;11.776;2022-10-30T05:45:50;95209.00;;;13.69;25.56
21826;BME280;11075;47.944;11.776;2022-10-30T05:48:17;95208.03;;;13.61;25.86
21826;BME280;11075;47.944;11.776;2022-10-30T05:50:45;95202.56;;;11.99;27.10
21826;BME280;11075;47.944;11.776;2022-10-30T05:53:24;95134.75;;;9.49;31.53
21826;BME280;11075;47.944;11.776;2022-10-30T05:55:57;95119.31;;;9.11;31.43
21826;BME280;11075;47.944;11.776;2022-10-30T05:58:29;95138.22;;;9.67;30.64
21826;BME280;11075;47.944;11.776;2022-10-30T06:01:04;95217.44;;;13.79;25.04
21826;BME280;11075;47.944;11.776;2022-10-30T06:03:40;95200.16;;;12.91;26.17
21826;BME280;11075;47.944;11.776;2022-10-30T06:06:07;95199.50;;;12.33;26.65
21826;BME280;11075;47.944;11.776;2022-10-30T06:08:34;95215.97;;;13.97;24.91
21826;BME280;11075;47.944;11.776;2022-10-30T06:11:12;95188.56;;;12.91;26.11
21826;BME280;11075;47.944;11.776;2022-10-30T06:13:42;95185.66;;;11.90;27.16
21826;BME280;11075;47.944;11.776;2022-10-30T06:16:11;95173.03;;;11.49;28.25
21826;BME280;11075;47.944;11.776;2022-10-30T06:18:56;95185.78;;;11.93;27.44
21826;BME280;11075;47.944;11.776;2022-10-30T06:21:24;95200.50;;;13.42;25.59
21826;BME280;11075;47.944;11.776;2022-10-30T06:24:12;95220.66;;;13.17;25.46
21826;BME280;11075;47.944;11.776;2022-10-30T06:27:00;95203.78;;;12.71;26.94
21826;BME280;11075;47.944;11.776;2022-10-30T06:29:27;95215.88;;;13.38;25.66
21826;BME280;11075;47.944;11.776;2022-10-30T06:31:54;95187.56;;;12.71;26.60
21826;BME280;11075;47.944;11.776;2022-10-30T06:34:25;95202.84;;;12.91;26.75
21826;BME280;11075;47.944;11.776;2022-10-30T06:36:52;95199.84;;;12.56;27.17
21826;BME280;11075;47.944;11.776;2022-10-30T06:39:20;95180.09;;;12.31;27.99
21826;BME280;11075;47.944;11.776;2022-10-30T06:42:06;95185.81;;;13.55;26.68
21826;BME280;11075;47.944;11.776;2022-10-30T06:44:59;95179.19;;;12.88;27.63
21826;BME280;11075;47.944;11.776;2022-10-30T06:47:26;95177.38;;;12.07;27.93
21826;BME280;11075;47.944;11.776;2022-10-30T06:49:53;95166.34;;;12.85;28.38
21826;BME280;11075;47.944;11.776;2022-10-30T06:52:20;95188.28;;;14.04;26.42
21826;BME280;11075;47.944;11.776;2022-10-30T06:54:49;95133.72;;;11.27;30.34
21826;BME280;11075;47.944;11.776;2022-10-30T06:57:55;95164.13;;;12.75;28.48
21826;BME280;11075;47.944;11.776;2022-10-30T07:00:30;95134.59;;;12.09;30.11
21826;BME280;11075;47.944;11.776;2022-10-30T07:03:11;95184.66;;;14.44;26.97
21826;BME280;11075;47.944;11.776;2022-10-30T07:05:38;95166.16;;;13.58;27.99
21826;BME280;11075;47.944;11.776;2022-10-30T07:08:05;95213.94;;;15.55;25.47
21826;BME280;11075;47.944;11.776;2022-10-30T07:10:32;95189.00;;;14.80;27.12
21826;BME280;11075;47.944;11.776;2022-10-30T07:13:19;95197.41;;;14.90;26.60
21826;BME280;11075;47.944;11.776;2022-10-30T07:15:57;95211.44;;;16.73;24.77
21826;BME280;11075;47.944;11.776;2022-10-30T07:18:31;95215.78;;;15.90;25.43
21826;BME280;11075;47.944;11.776;2022-10-30T07:21:00;95243.56;;;18.37;23.35
21826;BME280;11075;47.944;11.776;2022-10-30T07:23:28;95245.13;;;17.14;24.21
21826;BME280;11075;47.944;11.776;2022-10-30T07:26:08;95229.31;;;18.17;23.56
21826;BME280;11075;47.944;11.776;2022-10-30T07:28:41;95252.16;;;19.34;22.22
21826;BME280;11075;47.944;11.776;2022-10-30T07:31:25;95257.06;;;19.80;22.34
21826;BME280;11075;47.944;11.776;2022-10-30T07:34:33;95259.13;;;19.94;22.07
21826;BME280;11075;47.944;11.776;2022-10-30T07:37:28;95221.09;;;18.54;24.15
21826;BME280;11075;47.944;11.776;2022-10-30T07:40:03;95257.72;;;20.57;21.88
21826;BME280;11075;47.944;11.776;2022-10-30T07:42:57;95237.22;;;18.70;23.47
21826;BME280;11075;47.944;11.776;2022-10-30T07:45:31;95218.66;;;19.45;24.15
21826;BME280;11075;47.944;11.776;2022-10-30T07:48:13;95236.22;;;20.70;22.64
21826;BME280;11075;47.944;11.776;2022-10-30T07:51:04;95265.06;;;21.77;20.75
21826;BME280;11075;47.944;11.776;2022-10-30T07:53:31;95264.56;;;22.07;20.83
21826;BME280;11075;47.944;11.776;2022-10-30T07:56:00;95263.22;;;21.39;21.61
21826;BME280;11075;47.944;11.776;2022-10-30T07:58:47;95246.78;;;20.75;22.27
21826;BME280;11075;47.944;11.776;2022-10-30T08:01:32;95300.03;;;24.59;18.59
21826;BME280;11075;47.944;11.776;2022-10-30T08:04:20;95289.09;;;23.88;19.48
21826;BME280;11075;47.944;11.776;2022-10-30T08:06:47;95288.53;;;24.64;19.10
21826;BME280;11075;47.944;11.776;2022-10-30T08:09:14;95287.38;;;24.89;18.90
21826;BME280;11075;47.944;11.776;2022-10-30T08:11:45;95298.03;;;25.60;18.34
21826;BME280;11075;47.944;11.776;2022-10-30T08:14:13;95252.78;;;24.00;20.25
21826;BME280;11075;47.944;11.776;2022-10-30T08:16:41;95291.75;;;26.39;18.41
21826;BME280;11075;47.944;11.776;2022-10-30T08:19:07;95271.75;;;24.25;19.70
21826;BME280;11075;47.944;11.776;2022-10-30T08:21:34;95280.28;;;25.61;18.73
21826;BME280;11075;47.944;11.776;2022-10-30T08:24:12;95258.97;;;23.77;19.81
21826;BME280;11075;47.944;11.776;2022-10-30T08:26:41;95310.16;;;29.13;16.11
21826;BME280;11075;47.944;11.776;2022-10-30T08:29:10;95320.75;;;28.39;16.08
21826;BME280;11075;47.944;11.776;2022-10-30T08:31:37;95334.72;;;30.62;15.32
21826;BME280;11075;47.944;11.776;2022-10-30T08:34:36;95303.06;;;28.49;16.50
21826;BME280;11075;47.944;11.776;2022-10-30T08:37:05;95275.97;;;26.40;18.24
21826;BME280;11075;47.944;11.776;2022-10-30T08:39:33;95291.63;;;29.23;16.91
21826;BME280;11075;47.944;11.776;2022-10-30T08:42:20;95314.09;;;31.71;14.95
21826;BME280;11075;47.944;11.776;2022-10-30T08:44:48;95333.88;;;30.43;15.23
21826;BME280;11075;47.944;11.776;2022-10-30T08:47:33;95258.78;;;27.17;18.81
21826;BME280;11075;47.944;11.776;2022-10-30T08:50:01;95290.81;;;30.26;16.62
21826;BME280;11075;47.944;11.776;2022-10-30T08:52:31;95288.06;;;31.37;16.48
21826;BME280;11075;47.944;11.776;2022-10-30T08:54:59;95285.53;;;29.28;17.27
21826;BME280;11075;47.944;11.776;2022-10-30T08:57:34;95313.63;;;31.14;15.11
21826;BME280;11075;47.944;11.776;2022-10-30T09:00:02;95312.91;;;33.11;14.37
21826;BME280;11075;47.944;11.776;2022-10-30T09:02:52;95291.00;;;31.43;15.62
21826;BME280;11075;47.944;11.776;2022-10-30T09:05:37;95269.31;;;28.38;16.25
21826;BME280;11075;47.944;11.776;2022-10-30T09:08:09;95257.41;;;28.66;17.16
21826;BME280;11075;47.944;11.776;2022-10-30T09:11:11;95278.41;;;30.71;15.82
21826;BME280;11075;47.944;11.776;2022-10-30T09:13:38;95294.94;;;30.00;14.93
21826;BME280;11075;47.944;11.776;2022-10-30T09:16:05;95232.25;;;27.03;18.11
21826;BME280;11075;47.944;11.776;2022-10-30T09:18:35;95213.91;;;28.12;18.71
21826;BME280;11075;47.944;11.776;2022-10-30T09:21:02;95237.34;;;31.33;16.88
21826;BME280;11075;47.944;11.776;2022-10-30T09:23:36;95247.19;;;33.58;15.73
21826;BME280;11075;47.944;11.776;2022-10-30T09:26:25;95260.38;;;33.10;15.39
21826;BME280;11075;47.944;11.776;2022-10-30T09:29:12;95259.59;;;32.16;16.00
21826;BME280;11075;47.944;11.776;2022-10-30T09:31:54;95277.69;;;32.81;15.22
21826;BME280;11075;47.944;11.776;2022-10-30T09:34:23;95263.00;;;31.37;15.52
21826;BME280;11075;47.944;11.776;2022-10-30T09:37:04;95260.41;;;30.85;15.96
21826;BME280;11075;47.944;11.776;2022-10-30T09:39:35;95243.91;;;29.63;16.48
21826;BME280;11075;47.944;11.776;2022-10-30T09:45:20;95267.00;;;27.94;15.78
21826;BME280;11075;47.944;11.776;2022-10-30T09:53:32;95239.63;;;28.38;16.40
21826;BME280;11075;47.944;11.776;2022-10-30T10:01:18;95240.59;;;27.77;16.53
21826;BME280;11075;47.944;11.776;2022-10-30T10:07:22;95258.34;;;32.26;14.91
21826;BME280;11075;47.944;11.776;2022-10-30T10:09:58;95261.72;;;32.39;14.73
21826;BME280;11075;47.944;11.776;2022-10-30T10:12:54;95268.75;;;30.54;15.23
21826;BME280;11075;47.944;11.776;2022-10-30T10:15:48;95282.56;;;30.13;14.31
21826;BME280;11075;47.944;11.776;2022-10-30T10:18:22;95272.38;;;31.13;14.55
21826;BME280;11075;47.944;11.776;2022-10-30T10:20:53;95250.22;;;30.51;15.21
21826;BME280;11075;47.944;11.776;2022-10-30T10:23:58;95245.22;;;31.26;15.19
21826;BME280;11075;47.944;11.776;2022-10-30T10:40:58;95264.47;;;31.11;14.51
21826;BME280;11075;47.944;11.776;2022-10-30T10:43:53;95248.97;;;29.77;14.79
21826;BME280;11075;47.944;11.776;2022-10-30T10:49:51;95262.22;;;33.13;13.77
21826;BME280;11075;47.944;11.776;2022-10-30T10:52:24;95300.66;;;31.97;12.30
21826;BME280;11075;47.944;11.776;2022-10-30T10:55:01;95285.56;;;31.39;12.74
21826;BME280;11075;47.944;11.776;2022-10-30T10:57:37;95245.94;;;29.84;15.55
21826;BME280;11075;47.944;11.776;2022-10-30T11:03:13;95212.75;;;31.87;16.10
21826;BME280;11075;47.944;11.776;2022-10-30T11:05:57;95221.34;;;30.97;15.08
21826;BME280;11075;47.944;11.776;2022-10-30T11:08:29;95221.69;;;29.41;15.52
21826;BME280;11075;47.944;11.776;2022-10-30T11:11:03;95189.34;;;29.47;17.07
21826;BME280;11075;47.944;11.776;2022-10-30T11:13:35;95194.63;;;31.91;15.87
21826;BME280;11075;47.944;11.776;2022-10-30T11:18:41;95188.63;;;31.75;16.24
21826;BME280;11075;47.944;11.776;2022-10-30T11:21:16;95186.78;;;29.53;16.97
21826;BME280;11075;47.944;11.776;2022-10-30T11:23:46;95186.16;;;31.40;16.26
21826;BME280;11075;47.944;11.776;2022-10-30T11:28:51;95198.31;;;32.58;15.31
21826;BME280;11075;47.944;11.776;2022-10-30T11:31:22;95188.00;;;31.52;16.30
21826;BME280;11075;47.944;11.776;2022-10-30T11:33:50;95165.09;;;29.60;17.42
21826;BME280;11075;47.944;11.776;2022-10-30T11:36:22;95194.03;;;32.81;15.20
21826;BME280;11075;47.944;11.776;2022-10-30T11:38:49;95185.47;;;29.44;17.03
21826;BME280;11075;47.944;11.776;2022-10-30T11:41:18;95171.34;;;29.95;16.73
21826;BME280;11075;47.944;11.776;2022-10-30T11:43:46;95182.44;;;31.16;16.15
21826;BME280;11075;47.944;11.776;2022-10-30T11:46:21;95195.00;;;32.26;15.32
21826;BME280;11075;47.944;11.776;2022-10-30T11:48:48;95200.63;;;33.16;14.79
21826;BME280;11075;47.944;11.776;2022-10-30T11:51:47;95192.78;;;31.15;15.76
21826;BME280;11075;47.944;11.776;2022-10-30T11:54:19;95173.16;;;30.11;16.63
21826;BME280;11075;47.944;11.776;2022-10-30T11:56:48;95179.22;;;30.59;16.57
21826;BME280;11075;47.944;11.776;2022-10-30T11:59:21;95181.41;;;32.19;14.86
21826;BME280;11075;47.944;11.776;2022-10-30T12:02:17;95189.25;;;31.24;15.40
21826;BME280;11075;47.944;11.776;2022-10-30T12:04:45;95183.91;;;30.80;15.87
21826;BME280;11075;47.944;11.776;2022-10-30T12:07:44;95173.03;;;31.40;16.14
21826;BME280;11075;47.944;11.776;2022-10-30T12:10:23;95179.84;;;33.17;15.03
21826;BME280;11075;47.944;11.776;2022-10-30T12:12:51;95185.72;;;32.29;14.61
21826;BME280;11075;47.944;11.776;2022-10-30T12:15:20;95178.06;;;32.81;14.82
21826;BME280;11075;47.944;11.776;2022-10-30T12:18:01;95168.22;;;32.38;15.22
21826;BME280;11075;47.944;11.776;2022-10-30T12:20:30;95149.28;;;29.48;17.16
21826;BME280;11075;47.944;11.776;2022-10-30T12:23:09;95150.50;;;30.62;16.76
21826;BME280;11075;47.944;11.776;2022-10-30T12:25:36;95156.38;;;29.27;16.59
21826;BME280;11075;47.944;11.776;2022-10-30T12:28:07;95147.72;;;28.91;17.19
21826;BME280;11075;47.944;11.776;2022-10-30T12:33:28;95143.63;;;30.85;15.89
21826;BME280;11075;47.944;11.776;2022-10-30T12:36:02;95144.25;;;31.16;15.84
21826;BME280;11075;47.944;11.776;2022-10-30T12:38:43;95143.88;;;31.87;15.92
21826;BME280;11075;47.944;11.776;2022-10-30T12:41:20;95132.91;;;30.74;16.95
21826;BME280;11075;47.944;11.776;2022-10-30T12:44:02;95140.16;;;31.90;15.63
21826;BME280;11075;47.944;11.776;2022-10-30T12:49:23;95108.09;;;31.07;16.86
21826;BME280;11075;47.944;11.776;2022-10-30T12:52:15;95113.69;;;28.90;17.45
21826;BME280;11075;47.944;11.776;2022-10-30T12:55:08;95106.25;;;30.36;17.09
21826;BME280;11075;47.944;11.776;2022-10-30T12:58:03;95106.47;;;30.11;16.89
21826;BME280;11075;47.944;11.776;2022-10-30T13:00:49;95111.88;;;28.49;17.59
21826;BME280;11075;47.944;11.776;2022-10-30T13:03:31;95081.63;;;28.89;18.19
21826;BME280;11075;47.944;11.776;2022-10-30T13:06:21;95093.13;;;29.22;17.28
21826;BME280;11075;47.944;11.776;2022-10-30T13:14:00;95114.13;;;30.38;16.08
21826;BME280;11075;47.944;11.776;2022-10-30T13:16:30;95103.25;;;28.94;17.13
21826;BME280;11075;47.944;11.776;2022-10-30T13:19:00;95101.78;;;27.79;17.43
21826;BME280;11075;47.944;11.776;2022-10-30T13:21:34;95099.59;;;27.45;17.30
21826;BME280;11075;47.944;11.776;2022-10-30T13:27:17;95115.31;;;28.53;16.67
21826;BME280;11075;47.944;11.776;2022-10-30T13:29:59;95123.38;;;31.57;15.03
21826;BME280;11075;47.944;11.776;2022-10-30T13:40:59;95127.22;;;31.69;15.48
21826;BME280;11075;47.944;11.776;2022-10-30T13:43:47;95113.97;;;31.36;16.02
21826;BME280;11075;47.944;11.776;2022-10-30T13:49:47;95124.78;;;31.16;15.47
21826;BME280;11075;47.944;11.776;2022-10-30T13:52:20;95121.63;;;28.28;16.81
21826;BME280;11075;47.944;11.776;2022-10-30T13:55:16;95082.66;;;28.10;17.66
21826;BME280;11075;47.944;11.776;2022-10-30T14:00:25;95080.78;;;28.19;18.10
21826;BME280;11075;47.944;11.776;2022-10-30T14:04:00;95094.69;;;27.78;17.78
21826;BME280;11075;47.944;11.776;2022-10-30T14:11:31;95078.88;;;28.16;17.66
21826;BME280;11075;47.944;11.776;2022-10-30T14:22:39;95080.25;;;27.57;18.37
21826;BME280;11075;47.944;11.776;2022-10-30T14:25:15;95058.53;;;27.02;18.82
21826;BME280;11075;47.944;11.776;2022-10-30T14:27:42;95082.53;;;26.27;18.75
21826;BME280;11075;47.944;11.776;2022-10-30T14:30:17;95054.63;;;25.17;20.18
21826;BME280;11075;47.944;11.776;2022-10-30T14:32:50;95059.03;;;26.67;19.26
21826;BME280;11075;47.944;11.776;2022-10-30T14:35:31;95060.09;;;27.44;19.06
21826;BME280;11075;47.944;11.776;2022-10-30T14:40:35;95038.13;;;25.53;20.48
21826;BME280;11075;47.944;11.776;2022-10-30T14:43:38;95054.66;;;26.99;19.61
21826;BME280;11075;47.944;11.776;2022-10-30T14:46:22;95044.28;;;27.03;19.55
21826;BME280;11075;47.944;11.776;2022-10-30T14:49:01;95039.03;;;25.82;20.36
21826;BME280;11075;47.944;11.776;2022-10-30T14:54:26;95041.56;;;26.25;20.35
21826;BME280;11075;47.944;11.776;2022-10-30T14:56:54;95012.19;;;23.24;23.16
21826;BME280;11075;47.944;11.776;2022-10-30T14:59:24;95013.22;;;23.60;22.51
21826;BME280;11075;47.944;11.776;2022-10-30T15:04:43;95037.66;;;25.18;21.00
21826;BME280;11075;47.944;11.776;2022-10-30T15:07:32;95039.69;;;24.74;21.00
21826;BME280;11075;47.944;11.776;2022-10-30T15:10:18;95039.69;;;26.06;20.42
21826;BME280;11075;47.944;11.776;2022-10-30T15:13:21;95037.88;;;25.99;20.83
21826;BME280;11075;47.944;11.776;2022-10-30T15:15:59;95027.25;;;25.26;21.45
21826;BME280;11075;47.944;11.776;2022-10-30T15:18:27;95025.78;;;25.01;21.36
21826;BME280;11075;47.944;11.776;2022-10-30T15:21:02;95059.41;;;26.98;19.40